sensor_id;sensor_type;location;lat;lon;timestamp;pressure;altitude;pressure_sealevel;temperature;humidity
71565;BME280;59397;50.952;14.502;2023-05-06T00:16:58;980.77;;;14.76;64.45
71565;BME280;59397;50.952;14.502;2023-05-06T00:36:22;980.59;;;14.67;68.71
71565;BME280;59397;50.952;14.502;2023-05-06T00:55:58;980.64;;;14.36;66.67
71565;BME280;59397;50.952;14.502;2023-05-06T01:15:32;980.75;;;14.56;66.77
71565;BME280;59397;50.952;14.502;2023-05-06T01:35:11;980.51;;;14.28;67.73
71565;BME280;59397;50.952;14.502;2023-05-06T01:54:42;980.59;;;14.23;71.99
71565;BME280;59397;50.952;14.502;2023-05-06T02:14:17;980.63;;;14.04;76.72
71565;BME280;59397;50.952;14.502;2023-05-06T02:33:50;980.59;;;13.62;82.83
71565;BME280;59397;50.952;14.502;2023-05-06T02:53:21;980.47;;;12.81;92.51
71565;BME280;59397;50.952;14.502;2023-05-06T03:12:56;980.36;;;12.95;95.74
71565;BME280;59397;50.952;14.502;2023-05-06T03:32:33;980.44;;;13.26;94.11
71565;BME280;59397;50.952;14.502;2023-05-06T03:52:05;980.36;;;13.03;95.12
71565;BME280;59397;50.952;14.502;2023-05-06T04:11:40;980.54;;;13.22;96.98
71565;BME280;59397;50.952;14.502;2023-05-06T04:31:15;980.51;;;13.27;98.42
71565;BME280;59397;50.952;14.502;2023-05-06T04:50:41;980.54;;;13.32;96.39
71565;BME280;59397;50.952;14.502;2023-05-06T05:10:05;980.76;;;12.87;98.09
71565;BME280;59397;50.952;14.502;2023-05-06T05:29:42;980.83;;;13.87;92.07
71565;BME280;59397;50.952;14.502;2023-05-06T05:49:15;981.01;;;13.73;93.50
71565;BME280;59397;50.952;14.502;2023-05-06T06:08:53;980.95;;;14.43;84.51
71565;BME280;59397;50.952;14.502;2023-05-06T06:28:34;981.01;;;14.96;81.13
71565;BME280;59397;50.952;14.502;2023-05-06T06:47:52;981.26;;;15.69;79.12
71565;BME280;59397;50.952;14.502;2023-05-06T07:07:29;981.34;;;16.78;74.90
71565;BME280;59397;50.952;14.502;2023-05-06T07:27:12;981.39;;;17.95;68.99
71565;BME280;59397;50.952;14.502;2023-05-06T07:46:38;981.48;;;17.93;70.37
71565;BME280;59397;50.952;14.502;2023-05-06T08:06:14;981.59;;;17.82;71.27
71565;BME280;59397;50.952;14.502;2023-05-06T08:25:51;981.79;;;18.89;64.31
71565;BME280;59397;50.952;14.502;2023-05-06T08:45:28;981.85;;;19.36;60.93
71565;BME280;59397;50.952;14.502;2023-05-06T09:05:08;981.86;;;20.45;57.93
71565;BME280;59397;50.952;14.502;2023-05-06T09:24:41;981.80;;;21.25;53.76
71565;BME280;59397;50.952;14.502;2023-05-06T09:44:06;981.74;;;20.51;55.37
71565;BME280;59397;50.952;14.502;2023-05-06T10:03:43;981.51;;;21.62;50.91
71565;BME280;59397;50.952;14.502;2023-05-06T10:23:18;981.57;;;20.84;56.05
71565;BME280;59397;50.952;14.502;2023-05-06T10:42:51;981.41;;;21.87;50.11
71565;BME280;59397;50.952;14.502;2023-05-06T11:02:29;981.46;;;22.66;47.31
71565;BME280;59397;50.952;14.502;2023-05-06T11:22:00;981.49;;;20.67;53.75
71565;BME280;59397;50.952;14.502;2023-05-06T11:41:39;981.44;;;20.52;48.65
71565;BME280;59397;50.952;14.502;2023-05-06T12:01:18;981.49;;;21.84;46.24
71565;BME280;59397;50.952;14.502;2023-05-06T12:21:03;981.54;;;23.94;41.62
71565;BME280;59397;50.952;14.502;2023-05-06T12:40:34;981.56;;;23.44;42.28
71565;BME280;59397;50.952;14.502;2023-05-06T13:00:09;981.66;;;24.10;41.31
71565;BME280;59397;50.952;14.502;2023-05-06T13:19:43;981.57;;;22.28;43.69
71565;BME280;59397;50.952;14.502;2023-05-06T13:39:19;981.62;;;23.37;40.81
71565;BME280;59397;50.952;14.502;2023-05-06T13:58:43;981.59;;;23.09;43.42
71565;BME280;59397;50.952;14.502;2023-05-06T14:18:17;981.54;;;22.24;44.31
71565;BME280;59397;50.952;14.502;2023-05-06T14:37:42;981.44;;;21.64;44.31
71565;BME280;59397;50.952;14.502;2023-05-06T14:57:22;981.47;;;22.06;42.89
71565;BME280;59397;50.952;14.502;2023-05-06T15:16:54;981.49;;;21.68;43.26
71565;BME280;59397;50.952;14.502;2023-05-06T15:36:25;981.68;;;20.84;44.61
71565;BME280;59397;50.952;14.502;2023-05-06T15:55:57;981.69;;;19.99;46.85
71565;BME280;59397;50.952;14.502;2023-05-06T16:15:22;981.79;;;19.31;50.42
71565;BME280;59397;50.952;14.502;2023-05-06T16:34:52;982.01;;;18.49;54.18
71565;BME280;59397;50.952;14.502;2023-05-06T16:54:24;982.13;;;17.38;57.96
71565;BME280;59397;50.952;14.502;2023-05-06T17:13:58;982.21;;;17.55;56.79
71565;BME280;59397;50.952;14.502;2023-05-06T17:33:31;982.28;;;16.65;60.01
71565;BME280;59397;50.952;14.502;2023-05-06T17:53:01;982.69;;;15.72;66.28
71565;BME280;59397;50.952;14.502;2023-05-06T18:12:33;980.86;;;13.46;68.07
71565;BME280;59397;50.952;14.502;2023-05-06T18:32:07;983.08;;;14.39;70.23
71565;BME280;59397;50.952;14.502;2023-05-06T18:51:41;983.30;;;14.24;70.82
71565;BME280;59397;50.952;14.502;2023-05-06T19:11:17;983.65;;;13.91;72.44
71565;BME280;59397;50.952;14.502;2023-05-06T19:30:53;983.63;;;13.93;71.74
71565;BME280;59397;50.952;14.502;2023-05-06T19:50:15;983.84;;;12.94;75.63
71565;BME280;59397;50.952;14.502;2023-05-06T20:09:46;984.02;;;12.53;78.22
71565;BME280;59397;50.952;14.502;2023-05-06T20:29:20;984.00;;;12.64;77.94
71565;BME280;59397;50.952;14.502;2023-05-06T20:48:53;984.11;;;11.88;82.14
71565;BME280;59397;50.952;14.502;2023-05-06T21:08:29;984.23;;;12.17;80.71
71565;BME280;59397;50.952;14.502;2023-05-06T21:28:03;984.36;;;11.97;82.09
71565;BME280;59397;50.952;14.502;2023-05-06T21:47:38;984.42;;;11.60;84.66
71565;BME280;59397;50.952;14.502;2023-05-06T22:07:13;984.42;;;11.66;84.59
71565;BME280;59397;50.952;14.502;2023-05-06T22:26:46;984.59;;;11.40;84.76
71565;BME280;59397;50.952;14.502;2023-05-06T22:46:19;984.62;;;11.24;85.42
71565;BME280;59397;50.952;14.502;2023-05-06T23:05:46;984.54;;;11.16;85.66
71565;BME280;59397;50.952;14.502;2023-05-06T23:25:22;984.50;;;11.12;84.81
71565;BME280;59397;50.952;14.502;2023-05-06T23:44:55;984.51;;;11.04;85.50
